createdAt,value
2019-03-26T00:00:33.887Z,138.25
2019-03-26T00:03:07.787Z,135.05
2019-03-26T00:05:41.409Z,121.07
2019-03-26T00:08:24.410Z,136.10
2019-03-26T00:10:59.335Z,125.55
2019-03-26T00:13:32.567Z,130.37
2019-03-26T00:16:06.477Z,136.22
2019-03-26T00:21:34.097Z,126.00
2019-03-26T00:24:08.052Z,138.43
2019-03-26T00:27:17.849Z,135.93
2019-03-26T00:29:51.915Z,145.82
2019-03-26T00:32:25.496Z,128.42
2019-03-26T00:35:09.632Z,142.85
2019-03-26T00:37:54.312Z,133.57
2019-03-26T00:40:28.519Z,152.93
2019-03-26T00:43:02.348Z,144.45
2019-03-26T00:45:37.363Z,145.45
2019-03-26T00:48:11.436Z,142.05
2019-03-26T00:50:45.983Z,127.60
2019-03-26T00:53:20.374Z,149.80
2019-03-26T00:55:53.860Z,145.43
2019-03-26T00:58:27.625Z,150.93
2019-03-26T01:01:01.152Z,150.45
2019-03-26T01:03:35.490Z,143.57
2019-03-26T01:06:09.063Z,130.37
2019-03-26T01:08:42.926Z,151.50
2019-03-26T01:11:16.533Z,157.25
2019-03-26T01:13:49.886Z,147.62
2019-03-26T01:16:23.101Z,169.35
2019-03-26T01:18:56.710Z,163.72
2019-03-26T01:21:30.319Z,170.30
2019-03-26T01:24:04.063Z,178.00
2019-03-26T01:26:37.453Z,171.00
2019-03-26T01:29:11.475Z,169.50
2019-03-26T01:31:44.747Z,169.72
2019-03-26T01:34:18.357Z,188.80
2019-03-26T01:36:51.767Z,186.47
2019-03-26T01:39:25.610Z,174.00
2019-03-26T01:41:58.943Z,168.28
2019-03-26T01:44:32.492Z,172.25
2019-03-26T01:47:06.052Z,186.73
2019-03-26T01:49:39.850Z,188.07
2019-03-26T01:52:13.362Z,163.75
2019-03-26T01:54:46.815Z,167.72
2019-03-26T01:57:22.606Z,171.45
2019-03-26T01:59:55.849Z,179.42
2019-03-26T02:02:32.296Z,177.43
2019-03-26T02:05:06.551Z,176.30
2019-03-26T02:07:39.997Z,176.75
2019-03-26T02:10:34.109Z,184.28
2019-03-26T02:16:10.671Z,170.05
2019-03-26T02:18:45.416Z,173.28
2019-03-26T02:21:20.425Z,168.55
2019-03-26T02:23:54.218Z,171.70
2019-03-26T02:26:32.436Z,173.45
2019-03-26T02:29:06.589Z,159.12
2019-03-26T02:31:43.356Z,180.80
2019-03-26T02:34:19.301Z,167.00
2019-03-26T02:36:52.758Z,172.30
2019-03-26T02:39:26.442Z,175.82
2019-03-26T02:42:12.231Z,174.72
2019-03-26T02:44:39.028Z,167.72
2019-03-26T02:47:12.851Z,167.35
2019-03-26T02:49:48.978Z,172.62
2019-03-26T02:52:22.938Z,162.75
2019-03-26T02:54:56.338Z,171.68
2019-03-26T02:57:30.093Z,165.28
2019-03-26T03:00:04.369Z,158.70
2019-03-26T03:02:38.102Z,160.22
2019-03-26T03:05:11.531Z,154.10
2019-03-26T03:07:44.865Z,170.07
2019-03-26T03:10:18.356Z,162.62
2019-03-26T03:12:53.425Z,168.78
2019-03-26T03:15:27.755Z,149.90
2019-03-26T03:18:01.384Z,150.22
2019-03-26T03:20:34.599Z,156.65
2019-03-26T03:23:08.329Z,175.10
2019-03-26T03:25:41.672Z,161.62
2019-03-26T03:28:19.182Z,164.03
2019-03-26T03:30:53.516Z,120.97
2019-03-26T03:33:30.472Z,158.40
2019-03-26T03:36:02.514Z,151.35
2019-03-26T03:38:35.815Z,135.28
2019-03-26T03:41:42.143Z,169.00
2019-03-26T03:47:31.416Z,128.53
2019-03-26T03:53:39.342Z,166.73
2019-03-26T03:57:00.967Z,168.25
2019-03-26T04:12:50.368Z,180.78
2019-03-26T04:16:14.517Z,174.23
2019-03-26T04:21:46.182Z,157.78
2019-03-26T04:25:10.860Z,161.10
2019-03-26T04:27:10.395Z,147.65
2019-03-26T04:29:45.549Z,154.65
2019-03-26T04:32:19.162Z,174.07
2019-03-26T04:35:19.539Z,163.68
2019-03-26T04:37:57.423Z,164.70
2019-03-26T04:40:32.136Z,163.35
2019-03-26T04:43:09.419Z,159.20
2019-03-26T04:45:43.694Z,167.13
2019-03-26T04:48:18.519Z,156.95
2019-03-26T04:51:02.281Z,165.80
2019-03-26T04:53:34.087Z,179.35
2019-03-26T04:56:07.756Z,171.82
2019-03-26T04:58:44.039Z,161.62
2019-03-26T05:01:17.560Z,166.62
2019-03-26T05:03:51.038Z,169.37
2019-03-26T05:06:37.220Z,176.42
2019-03-26T05:08:59.957Z,166.70
2019-03-26T05:12:25.546Z,169.95
2019-03-26T05:15:16.961Z,169.10
2019-03-26T05:17:51.963Z,174.95
2019-03-26T05:20:29.463Z,179.30
2019-03-26T05:23:03.303Z,174.93
2019-03-26T05:25:37.644Z,158.70
2019-03-26T05:28:11.289Z,166.12
2019-03-26T05:30:58.487Z,168.52
2019-03-26T05:33:37.229Z,172.85
2019-03-26T05:36:09.127Z,161.37
2019-03-26T05:38:42.452Z,169.35
2019-03-26T05:41:18.884Z,170.43
2019-03-26T05:43:53.416Z,158.45
2019-03-26T05:46:33.905Z,159.50
2019-03-26T05:49:07.209Z,155.30
2019-03-26T05:51:41.750Z,163.92
2019-03-26T05:54:16.380Z,156.65
2019-03-26T05:56:50.090Z,160.30
2019-03-26T05:59:23.289Z,158.05
2019-03-26T06:02:14.200Z,166.43
2019-03-26T06:04:40.920Z,168.20
2019-03-26T06:07:25.302Z,155.07
2019-03-26T06:09:59.473Z,153.93
2019-03-26T06:12:36.994Z,154.80
2019-03-26T06:15:22.341Z,152.25
2019-03-26T06:17:57.762Z,158.40
2019-03-26T06:20:35.563Z,153.62
2019-03-26T06:23:09.092Z,173.65
2019-03-26T06:25:43.790Z,164.93
2019-03-26T06:28:20.073Z,166.37
2019-03-26T06:30:54.718Z,161.10
2019-03-26T06:33:30.128Z,163.50
2019-03-26T06:36:04.251Z,164.75
2019-03-26T06:38:38.467Z,160.03
2019-03-26T06:41:12.068Z,172.90
2019-03-26T06:43:49.490Z,180.03
2019-03-26T06:46:23.809Z,181.87
2019-03-26T06:48:58.109Z,185.50
2019-03-26T06:51:35.378Z,175.03
2019-03-26T06:54:10.024Z,172.02
2019-03-26T06:56:43.898Z,176.90
2019-03-26T06:59:17.393Z,174.70
2019-03-26T07:01:51.635Z,181.50
2019-03-26T07:04:25.379Z,186.22
2019-03-26T07:06:59.153Z,196.00
2019-03-26T07:09:32.795Z,184.43
2019-03-26T07:12:07.792Z,182.02
2019-03-26T07:14:52.465Z,167.57
2019-03-26T07:17:27.567Z,177.40
2019-03-26T07:20:02.141Z,162.37
2019-03-26T07:22:36.984Z,172.50
2019-03-26T07:25:12.025Z,175.15
2019-03-26T07:27:46.612Z,162.20
2019-03-26T07:30:39.739Z,164.37
2019-03-26T07:33:13.449Z,163.07
2019-03-26T07:35:50.802Z,194.05
2019-03-26T07:38:27.536Z,208.05
2019-03-26T07:41:00.859Z,205.92
2019-03-26T07:43:34.587Z,211.80
2019-03-26T07:46:08.270Z,209.37
2019-03-26T07:48:43.379Z,210.57
2019-03-26T07:51:16.599Z,210.65
2019-03-26T07:53:50.374Z,220.52
2019-03-26T07:56:23.663Z,226.20
2019-03-26T07:58:57.108Z,220.15
2019-03-26T08:01:30.361Z,230.83
2019-03-26T08:04:04.293Z,213.00
2019-03-26T08:06:37.806Z,221.45
2019-03-26T08:09:11.575Z,244.47
2019-03-26T08:11:44.857Z,245.88
2019-03-26T08:14:18.260Z,242.18
2019-03-26T08:16:51.521Z,266.48
2019-03-26T08:19:25.384Z,253.52
2019-03-26T08:21:58.541Z,272.98
2019-03-26T08:24:32.175Z,250.15
2019-03-26T08:27:05.402Z,283.40
2019-03-26T08:29:40.885Z,278.05
2019-03-26T08:32:14.396Z,264.20
2019-03-26T08:34:48.062Z,266.12
2019-03-26T08:37:21.775Z,271.68
2019-03-26T08:39:56.149Z,279.98
2019-03-26T08:42:30.039Z,281.73
2019-03-26T08:45:03.596Z,270.90
2019-03-26T08:47:37.383Z,274.20
2019-03-26T08:50:11.225Z,232.47
2019-03-26T08:52:44.668Z,222.17
2019-03-26T08:55:19.789Z,236.95
2019-03-26T08:57:53.246Z,219.95
2019-03-26T09:00:32.068Z,214.75
2019-03-26T09:03:04.491Z,221.37
2019-03-26T09:05:38.297Z,203.37
2019-03-26T09:08:24.490Z,224.75
2019-03-26T09:10:51.705Z,207.52
2019-03-26T09:13:21.170Z,221.30
2019-03-26T09:15:54.656Z,214.53
2019-03-26T09:18:27.859Z,207.77
2019-03-26T09:21:01.833Z,154.85
2019-03-26T09:23:35.034Z,210.23
2019-03-26T09:26:08.524Z,214.48
2019-03-26T09:28:41.762Z,202.20
2019-03-26T09:31:18.990Z,214.80
2019-03-26T09:33:52.327Z,197.45
2019-03-26T09:36:26.055Z,193.00
2019-03-26T09:38:59.641Z,198.72
2019-03-26T09:41:33.505Z,210.72
2019-03-26T09:44:06.767Z,201.00
2019-03-26T09:46:40.490Z,205.83
2019-03-26T09:49:16.468Z,201.15
2019-03-26T09:51:48.732Z,201.32
2019-03-26T09:54:22.166Z,196.85
2019-03-26T09:56:55.785Z,199.70
2019-03-26T09:59:29.602Z,193.52
2019-03-26T10:02:03.450Z,200.40
2019-03-26T10:04:36.793Z,186.65
2019-03-26T10:07:20.733Z,193.15
2019-03-26T10:09:45.004Z,210.32
2019-03-26T10:12:18.864Z,196.40
2019-03-26T10:14:52.319Z,202.62
2019-03-26T10:17:25.885Z,184.70
2019-03-26T10:19:59.256Z,188.90
2019-03-26T10:22:32.960Z,190.47
2019-03-26T10:25:28.858Z,188.75
2019-03-26T10:27:53.058Z,193.17
2019-03-26T10:30:38.468Z,189.87
2019-03-26T10:33:12.103Z,202.20
2019-03-26T10:38:40.995Z,185.85
2019-03-26T10:41:14.744Z,185.67
2019-03-26T10:43:48.080Z,201.88
2019-03-26T10:46:22.717Z,204.23
2019-03-26T10:48:56.120Z,195.25
2019-03-26T10:51:30.319Z,206.25
2019-03-26T10:54:05.219Z,182.82
2019-03-26T10:56:38.392Z,188.57
2019-03-26T10:59:11.736Z,201.02
2019-03-26T11:01:45.888Z,182.45
2019-03-26T11:04:22.117Z,189.20
2019-03-26T11:06:56.033Z,205.07
2019-03-26T11:09:30.223Z,182.50
2019-03-26T11:12:06.662Z,188.42
2019-03-26T11:14:40.088Z,186.92
2019-03-26T11:17:16.659Z,186.32
2019-03-26T11:19:53.051Z,192.62
2019-03-26T11:22:27.289Z,191.10
2019-03-26T11:25:03.470Z,198.28
2019-03-26T11:27:37.609Z,214.32
2019-03-26T11:30:11.489Z,212.20
2019-03-26T11:32:45.503Z,212.02
2019-03-26T11:35:19.102Z,201.37
2019-03-26T11:37:59.854Z,199.30
2019-03-26T11:43:07.725Z,203.77
2019-03-26T11:45:42.119Z,198.50
2019-03-26T11:48:21.547Z,202.97
2019-03-26T11:50:55.868Z,202.80
2019-03-26T11:53:29.593Z,190.38
2019-03-26T11:56:05.482Z,188.03
2019-03-26T11:58:39.845Z,191.45
2019-03-26T12:01:13.392Z,196.60
2019-03-26T12:03:47.053Z,186.15
2019-03-26T12:06:21.071Z,201.32
2019-03-26T12:08:54.492Z,191.70
2019-03-26T12:11:27.909Z,197.37
2019-03-26T12:14:01.381Z,189.37
2019-03-26T12:16:35.081Z,207.47
2019-03-26T12:19:08.410Z,206.78
2019-03-26T12:21:55.810Z,203.37
2019-03-26T12:24:32.585Z,201.62
2019-03-26T12:27:11.101Z,202.15
2019-03-26T12:29:47.019Z,203.90
2019-03-26T12:32:23.941Z,198.43
2019-03-26T12:34:57.878Z,186.88
2019-03-26T12:37:35.788Z,189.97
2019-03-26T12:40:18.307Z,213.80
2019-03-26T12:42:56.853Z,192.77
2019-03-26T12:45:30.145Z,203.65
2019-03-26T12:48:10.598Z,204.43
2019-03-26T12:50:46.419Z,222.17
2019-03-26T12:53:21.382Z,217.22
2019-03-26T12:55:55.562Z,214.53
2019-03-26T12:58:36.073Z,224.00
2019-03-26T13:01:06.563Z,206.32
2019-03-26T13:03:40.354Z,224.00
2019-03-26T13:06:17.616Z,225.32
2019-03-26T13:08:51.335Z,217.77
2019-03-26T13:11:28.848Z,213.60
2019-03-26T13:13:59.969Z,201.35
2019-03-26T13:16:33.382Z,222.93
2019-03-26T13:19:06.969Z,226.75
2019-03-26T13:21:41.756Z,263.80
2019-03-26T13:24:15.344Z,225.60
2019-03-26T13:26:49.268Z,222.65
2019-03-26T13:29:27.021Z,228.07
2019-03-26T13:32:01.013Z,212.75
2019-03-26T13:34:34.755Z,202.18
2019-03-26T13:37:10.079Z,220.82
2019-03-26T13:39:44.040Z,220.30
2019-03-26T13:42:17.943Z,210.63
2019-03-26T13:44:53.104Z,219.43
2019-03-26T13:47:27.688Z,231.70
2019-03-26T13:50:02.016Z,234.35
2019-03-26T13:52:35.448Z,224.15
2019-03-26T13:55:12.657Z,221.57
2019-03-26T13:57:46.454Z,215.68
2019-03-26T14:00:22.223Z,216.05
2019-03-26T14:02:56.016Z,211.12
2019-03-26T14:05:30.057Z,214.35
2019-03-26T14:08:03.290Z,203.45
2019-03-26T14:10:41.048Z,208.35
2019-03-26T14:13:11.627Z,200.38
2019-03-26T14:15:55.266Z,202.05
2019-03-26T14:18:28.865Z,196.45
2019-03-26T14:21:02.539Z,191.18
2019-03-26T14:23:36.324Z,173.65
2019-03-26T14:26:10.115Z,161.88
2019-03-26T14:28:43.500Z,152.38
2019-03-26T14:31:17.059Z,151.97
2019-03-26T14:33:50.307Z,143.40
2019-03-26T14:36:24.586Z,141.97
2019-03-26T14:38:58.081Z,149.38
2019-03-26T14:41:31.722Z,149.40
2019-03-26T14:44:05.537Z,135.10
2019-03-26T14:46:39.505Z,135.05
2019-03-26T14:49:13.573Z,132.40
2019-03-26T14:51:47.495Z,139.95
2019-03-26T14:54:24.702Z,109.48
2019-03-26T14:56:59.033Z,120.30
2019-03-26T14:59:34.122Z,115.77
2019-03-26T15:02:07.750Z,122.45
2019-03-26T15:04:41.349Z,109.37
2019-03-26T15:07:16.980Z,95.25
2019-03-26T15:09:51.165Z,102.38
2019-03-26T15:12:24.694Z,98.55
2019-03-26T15:14:58.345Z,98.07
2019-03-26T15:17:33.150Z,103.90
2019-03-26T15:20:08.866Z,97.67
2019-03-26T15:22:42.177Z,94.35
2019-03-26T15:25:17.433Z,91.42
2019-03-26T15:27:50.805Z,93.12
2019-03-26T15:30:24.395Z,91.32
2019-03-26T15:32:57.955Z,87.50
2019-03-26T15:35:31.638Z,85.83
2019-03-26T15:38:10.056Z,90.57
2019-03-26T15:40:47.099Z,83.87
2019-03-26T15:43:20.678Z,83.92
2019-03-26T15:45:57.300Z,87.85
2019-03-26T15:48:40.833Z,88.45
2019-03-26T15:51:15.346Z,88.70
2019-03-26T15:53:54.398Z,81.37
2019-03-26T15:56:28.247Z,80.05
2019-03-26T15:59:13.576Z,83.95
2019-03-26T16:01:54.263Z,79.45
2019-03-26T16:04:32.820Z,89.17
2019-03-26T16:07:04.755Z,82.35
2019-03-26T16:09:39.489Z,84.17
2019-03-26T16:12:13.678Z,75.92
2019-03-26T16:14:47.355Z,87.90
2019-03-26T16:17:23.880Z,84.22
2019-03-26T16:20:05.625Z,79.70
2019-03-26T16:22:40.821Z,81.35
2019-03-26T16:28:56.080Z,78.67
2019-03-26T16:31:36.474Z,81.57
2019-03-26T16:34:10.509Z,80.92
2019-03-26T16:36:44.023Z,87.97
2019-03-26T16:39:17.707Z,81.15
2019-03-26T16:41:51.987Z,92.27
2019-03-26T16:44:25.747Z,80.87
2019-03-26T16:46:59.429Z,77.62
2019-03-26T16:49:33.472Z,85.97
2019-03-26T16:52:09.670Z,88.37
2019-03-26T16:54:43.542Z,84.67
2019-03-26T16:57:16.914Z,80.12
2019-03-26T16:59:53.836Z,89.13
2019-03-26T17:02:27.117Z,84.00
2019-03-26T17:05:00.804Z,80.67
2019-03-26T17:07:34.117Z,73.87
2019-03-26T17:10:09.454Z,80.50
2019-03-26T17:12:42.928Z,79.60
2019-03-26T17:15:16.950Z,80.28
2019-03-26T17:17:50.353Z,78.28
2019-03-26T17:20:31.942Z,81.35
2019-03-26T17:23:06.610Z,81.32
2019-03-26T17:25:40.250Z,79.40
2019-03-26T17:28:13.945Z,79.30
2019-03-26T17:30:47.736Z,80.83
2019-03-26T17:33:22.214Z,85.20
2019-03-26T17:35:55.568Z,91.35
2019-03-26T17:38:28.774Z,82.12
2019-03-26T17:41:02.222Z,78.95
2019-03-26T17:43:36.463Z,86.02
2019-03-26T17:46:09.757Z,91.82
2019-03-26T17:48:43.401Z,85.65
2019-03-26T17:51:17.096Z,85.42
2019-03-26T17:53:51.409Z,85.10
2019-03-26T17:56:25.960Z,83.45
2019-03-26T17:58:59.777Z,84.83
2019-03-26T18:01:33.500Z,86.85
2019-03-26T18:04:07.250Z,86.55
2019-03-26T18:06:40.864Z,91.00
2019-03-26T18:09:14.675Z,83.33
2019-03-26T18:11:48.887Z,85.28
2019-03-26T18:14:22.533Z,82.08
2019-03-26T18:16:56.380Z,84.95
2019-03-26T18:19:38.218Z,87.70
2019-03-26T18:22:15.349Z,77.40
2019-03-26T18:24:48.780Z,84.62
2019-03-26T18:27:25.873Z,80.92
2019-03-26T18:30:00.950Z,80.72
2019-03-26T18:32:36.451Z,89.65
2019-03-26T18:35:10.268Z,95.95
2019-03-26T18:37:43.556Z,85.05
2019-03-26T18:40:17.417Z,82.17
2019-03-26T18:42:51.749Z,80.25
2019-03-26T18:45:25.629Z,85.57
2019-03-26T18:47:59.646Z,88.82
2019-03-26T18:50:32.993Z,86.72
2019-03-26T18:53:06.571Z,83.50
2019-03-26T18:55:43.334Z,90.97
2019-03-26T18:58:16.706Z,91.22
2019-03-26T19:00:50.413Z,84.95
2019-03-26T19:03:23.705Z,87.82
2019-03-26T19:05:57.409Z,85.05
2019-03-26T19:08:31.703Z,89.25
2019-03-26T19:11:05.564Z,96.57
2019-03-26T19:13:38.808Z,84.60
2019-03-26T19:16:12.172Z,82.80
2019-03-26T19:18:45.399Z,93.78
2019-03-26T19:21:19.427Z,85.77
2019-03-26T19:24:03.385Z,91.08
2019-03-26T19:26:28.313Z,91.87
2019-03-26T19:29:02.114Z,80.62
2019-03-26T19:31:36.422Z,84.75
2019-03-26T19:34:09.729Z,85.05
2019-03-26T19:36:43.062Z,84.60
2019-03-26T19:39:17.279Z,86.25
2019-03-26T19:41:50.672Z,93.17
2019-03-26T19:44:23.972Z,82.05
2019-03-26T19:46:58.060Z,95.20
2019-03-26T19:49:31.384Z,94.22
2019-03-26T19:52:05.202Z,92.37
2019-03-26T19:54:38.584Z,88.65
2019-03-26T19:57:12.519Z,85.72
2019-03-26T19:59:45.689Z,90.83
2019-03-26T20:02:19.511Z,84.07
2019-03-26T20:04:52.683Z,91.55
2019-03-26T20:07:26.638Z,97.90
2019-03-26T20:10:00.564Z,95.67
2019-03-26T20:12:35.370Z,101.27
2019-03-26T20:15:10.771Z,103.67
2019-03-26T20:17:44.186Z,94.45
2019-03-26T20:20:18.298Z,102.97
2019-03-26T20:22:54.501Z,93.45
2019-03-26T20:25:28.376Z,92.42
2019-03-26T20:28:02.070Z,86.10
2019-03-26T20:30:35.380Z,89.45
2019-03-26T20:33:09.113Z,82.60
2019-03-26T20:35:42.393Z,91.87
2019-03-26T20:38:16.153Z,83.62
2019-03-26T20:40:50.031Z,85.15
2019-03-26T20:43:36.801Z,86.35
2019-03-26T20:45:59.710Z,84.83
2019-03-26T20:48:33.191Z,87.02
2019-03-26T20:51:06.542Z,77.85
2019-03-26T20:53:40.633Z,77.62
2019-03-26T20:56:15.488Z,69.70
2019-03-26T20:58:49.454Z,70.50
2019-03-26T21:01:22.869Z,79.05
2019-03-26T21:03:56.320Z,72.55
2019-03-26T21:06:29.758Z,76.47
2019-03-26T21:09:03.180Z,74.62
2019-03-26T21:11:37.985Z,40.83
2019-03-26T21:14:12.032Z,75.57
2019-03-26T21:16:45.476Z,76.70
2019-03-26T21:19:19.001Z,73.75
2019-03-26T21:21:53.098Z,76.20
2019-03-26T21:24:26.967Z,78.05
2019-03-26T21:27:01.236Z,79.40
2019-03-26T21:29:35.113Z,72.08
2019-03-26T21:32:08.469Z,79.97
2019-03-26T21:34:43.418Z,87.02
2019-03-26T21:37:16.772Z,86.67
2019-03-26T21:39:50.546Z,98.40
2019-03-26T21:42:23.790Z,87.85
2019-03-26T21:44:57.786Z,101.12
2019-03-26T21:47:30.957Z,88.85
2019-03-26T21:50:05.067Z,89.17
2019-03-26T21:52:40.417Z,106.30
2019-03-26T21:55:14.473Z,94.13
2019-03-26T21:57:49.784Z,100.72
2019-03-26T22:00:23.564Z,99.70
2019-03-26T22:02:57.052Z,95.70
2019-03-26T22:05:30.696Z,106.72
2019-03-26T22:08:04.564Z,94.55
2019-03-26T22:10:37.973Z,104.12
2019-03-26T22:13:11.684Z,97.20
2019-03-26T22:15:44.897Z,107.17
2019-03-26T22:18:18.819Z,100.40
2019-03-26T22:20:52.011Z,104.80
2019-03-26T22:23:25.707Z,101.10
2019-03-26T22:25:58.895Z,150.03
2019-03-26T22:28:32.217Z,135.22
2019-03-26T22:31:05.405Z,173.65
2019-03-26T22:33:39.216Z,170.30
2019-03-26T22:36:12.408Z,176.10
2019-03-26T22:38:46.020Z,218.90
2019-03-26T22:41:19.199Z,208.55
2019-03-26T22:43:55.094Z,211.72
2019-03-26T22:46:27.979Z,231.93
2019-03-26T22:49:01.852Z,244.32
2019-03-26T22:51:35.101Z,239.88
2019-03-26T22:54:09.049Z,267.35
2019-03-26T22:56:42.258Z,247.05
2019-03-26T22:59:15.558Z,248.95
2019-03-26T23:01:48.840Z,259.40
2019-03-26T23:04:22.914Z,248.38
2019-03-26T23:06:56.320Z,262.52
2019-03-26T23:09:29.901Z,267.15
2019-03-26T23:12:03.252Z,248.53
2019-03-26T23:14:45.006Z,242.40
2019-03-26T23:17:12.677Z,251.12
2019-03-26T23:19:46.527Z,255.87
2019-03-26T23:22:21.285Z,258.23
2019-03-26T23:24:56.418Z,237.05
2019-03-26T23:27:29.794Z,234.80
2019-03-26T23:30:03.226Z,271.05
2019-03-26T23:32:36.532Z,261.68
2019-03-26T23:35:10.993Z,249.88
2019-03-26T23:37:44.477Z,284.73
2019-03-26T23:40:18.294Z,286.48
2019-03-26T23:42:51.681Z,274.42
2019-03-26T23:45:25.707Z,263.48
2019-03-26T23:47:58.972Z,258.75
2019-03-26T23:50:32.933Z,254.65
2019-03-26T23:53:06.185Z,275.90
2019-03-26T23:55:40.996Z,280.75
2019-03-26T23:58:14.343Z,290.45
